Osteen, FL (32764)

10:18 PM EST on November 22, 2014 (GMT -0500)
Bent Oaks | Change Station
CLOSE
Current Station
Personal Weather Station
Location: Osteen, FL
Elevation: 41 ft
Nearby Weather Stations

Elev 41 ft 28.85 °N, 81.17 °W | Updated 4 minutes ago

Overcast
Overcast
71.5 °F
Feels Like 71 °F
N
3.0
Wind Variable Wind from ESE
Gusts 8.0 mph

Today
High -- | Low -- °F
--% Chance of Precip.
Yesterday
High -- | Low -- °F
Precip. -- in
6:53 AM 5:27 PM
New Moon, 0% visible
Pressure 30.14 in
Visibility 10.0 miles
Clouds Overcast 3500 ft
Heat Index 71 °F
Dew Point 66 °F
Humidity 82%
Rainfall -999.00 in
Snow Depth Not available.
UV 0 out of 12
Pollen 3.50 out of 12
Air Quality Not available.
Flu Activity Not available.
SPECI KSFB 230300Z 11010KT 10SM OVC035 21/18 A3014 RMK AO2 T02110183

More Conditions Fewer Conditions

Pressure 30.14 in
Visibility 10.0 miles
Clouds Overcast 3500 ft
Heat Index 71 °F
Dew Point 66 °F
Humidity 82%
Rainfall -999.00 in
Snow Depth Not available.
UV 0 out of 12
Pollen 3.50 out of 12
Air Quality Not available.
Flu Activity Not available.
SPECI KSFB 230300Z 11010KT 10SM OVC035 21/18 A3014 RMK AO2 T02110183

More Conditions Fewer Conditions

Nowcast | as of 9:28 PM EST on November 22, 2014

Warmer and more moist south to southwest windflow from the southeast Gulf of Mexico moves overtop of a relatively drier east to southeast wind off the Atlantic. Lowering cloud bases and periods of light rain or drizzle will be the main weather features overnight. Easterly winds of 25 mph with gusts over 30 mph and seas to 9 feet have prompted small craft advisories for all of east central Florida coastal waters from Flagler Beach to Jupiter Inlet out to 60 nautical miles. Additional details...including graphics are available online at: http://www.Srh.NOAA.Gov/mlb/blog.Php

×

10-Day Weather Forecast

Almanac

Astronomy

Nov. 22, 2014 Rise Set
Actual Time
Civil Twilight
Nautical Twilight
Astronomical Twilight
Moon
Length of Visible Light
Length of Day
Tomorrow will be .
, % of the Moon is Illuminated

Today's Extremes

State Highs State Lows

Community

WunderPhotos

Upload Photos

1,772,989 photos uploaded!

WunderBlogs® & News

Nearby

Air Quality

  Air Quality AQ Index Pollutant
Not available.

Snow Depth

Station Depth Elevation

Earthquake Activity

City Distance Mag. Time & Date
Minimum magnitude displayed is 2.5.

Coastal Water Temperatures

Place Temperature

Nearby Weather Stations